Time;durP1;ratioP1;P1;durP2;ratioP2;P2;SDS_P1;SDS_P2;PMS_P1;PMS_P2;Temp;Humidity;BMP_temperature;BMP_pressure;BME280_temperature;BME280_humidity;BME280_pressure;Samples;Min_cycle;Max_cycle;Signal;HPM_P1;HPM_P2
2023/09/12 00:00:40;;;;;;;39.30;31.05;;;;;;;19.13;100.00;101192.69;5050235;28;20022;-76
2023/09/12 00:03:05;;;;;;;35.08;31.38;;;;;;;19.02;100.00;101182.31;5050396;28;20026;-76
2023/09/12 00:05:30;;;;;;;34.30;30.42;;;;;;;19.07;100.00;101191.50;5049561;28;20027;-75
2023/09/12 00:07:56;;;;;;;38.50;30.90;;;;;;;19.00;100.00;101200.31;5034945;28;20036;-76
2023/09/12 00:10:21;;;;;;;41.30;34.65;;;;;;;19.00;100.00;101200.31;5035143;28;20034;-75
2023/09/12 00:12:46;;;;;;;33.97;30.40;;;;;;;18.97;100.00;101195.28;5029437;28;20079;-79
2023/09/12 00:15:14;;;;;;;38.35;29.63;;;;;;;18.99;100.00;101198.63;5032423;28;20116;-76
2023/09/12 00:17:39;;;;;;;35.92;29.95;;;;;;;19.00;100.00;101189.63;5032034;28;20033;-79
2023/09/12 00:20:06;;;;;;;33.90;29.17;;;;;;;18.99;100.00;101195.97;5047039;28;20025;-76
2023/09/12 00:22:33;;;;;;;38.20;30.13;;;;;;;18.91;100.00;101199.44;5033010;28;20029;-76
2023/09/12 00:24:58;;;;;;;31.77;28.38;;;;;;;18.92;100.00;101200.28;5031620;28;20056;-79
2023/09/12 00:27:24;;;;;;;31.35;27.52;;;;;;;18.92;100.00;101206.44;5031850;28;20021;-78
2023/09/12 00:29:49;;;;;;;33.78;28.67;;;;;;;18.86;100.00;101204.41;5016548;28;20072;-75
2023/09/12 00:32:14;;;;;;;32.22;26.73;;;;;;;18.87;100.00;101199.91;5012058;28;20076;-79
2023/09/12 00:34:40;;;;;;;29.13;26.02;;;;;;;18.83;100.00;101207.41;5011697;28;20080;-79
2023/09/12 00:37:05;;;;;;;34.05;29.98;;;;;;;18.77;100.00;101200.84;5011085;28;20032;-75
2023/09/12 00:39:30;;;;;;;33.15;27.77;;;;;;;18.73;100.00;101199.47;5011995;28;20017;-75
2023/09/12 00:41:58;;;;;;;30.20;26.88;;;;;;;18.69;100.00;101197.28;5012319;28;20057;-79
2023/09/12 00:44:24;;;;;;;34.03;27.63;;;;;;;18.68;100.00;101201.78;5027500;28;20494;-75
2023/09/12 00:46:50;;;;;;;29.98;26.77;;;;;;;18.66;100.00;101197.59;5011422;28;20018;-75
2023/09/12 00:49:17;;;;;;;30.60;26.17;;;;;;;18.59;100.00;101197.38;5011393;28;20389;-75
2023/09/12 00:51:44;;;;;;;29.02;26.00;;;;;;;18.64;100.00;101202.25;5011464;28;20022;-79
2023/09/12 00:54:10;;;;;;;31.75;26.58;;;;;;;18.62;100.00;101199.75;5030610;28;20021;-75
2023/09/12 00:56:38;;;;;;;30.25;26.73;;;;;;;18.59;100.00;101197.38;5031464;28;20037;-78
2023/09/12 00:59:05;;;;;;;28.27;25.23;;;;;;;18.59;100.00;101196.53;5030912;28;20108;-75
2023/09/12 01:01:32;;;;;;;30.25;26.63;;;;;;;18.56;100.00;101192.34;5030331;28;20029;-75
2023/09/12 01:03:57;;;;;;;29.48;25.05;;;;;;;18.57;100.00;101193.19;5030861;28;20104;-75
2023/09/12 01:06:27;;;;;;;27.90;24.80;;;;;;;18.55;100.00;101196.03;5046385;28;20027;-78
2023/09/12 01:08:53;;;;;;;28.63;25.63;;;;;;;18.50;100.00;101187.66;5029858;28;20124;-79
2023/09/12 01:11:20;;;;;;;28.58;25.58;;;;;;;18.47;100.00;101186.16;5029799;28;20409;-75
2023/09/12 01:13:46;;;;;;;29.63;23.73;;;;;;;18.46;100.00;101188.97;5029146;28;20022;-75
2023/09/12 01:16:11;;;;;;;29.42;23.80;;;;;;;18.47;100.00;101182.66;5030862;28;20026;-75
2023/09/12 01:18:38;;;;;;;30.45;24.23;;;;;;;18.41;100.00;101188.56;5030740;28;20100;-79
2023/09/12 01:21:28;;;;;;;25.73;23.10;;;;;;;18.44;100.00;101180.28;5029801;28;20026;-75
2023/09/12 01:24:12;;;;;;;27.95;23.98;;;;;;;18.41;100.00;101177.91;5031571;28;20104;-75
2023/09/12 01:26:46;;;;;;;28.13;24.33;;;;;;;18.30;100.00;101191.50;5031860;28;20386;-75
2023/09/12 01:29:13;;;;;;;27.20;24.40;;;;;;;18.30;100.00;101178.19;5020261;28;20382;-75
2023/09/12 01:31:40;;;;;;;33.00;25.75;;;;;;;18.29;100.00;101184.50;5011770;28;20029;-75
2023/09/12 01:34:10;;;;;;;27.50;24.50;;;;;;;18.28;100.00;101178.34;5011524;28;20152;-75
2023/09/12 01:36:36;;;;;;;29.20;24.00;;;;;;;18.27;100.00;101181.16;5026433;28;20022;-75
2023/09/12 01:39:01;;;;;;;29.88;24.10;;;;;;;18.24;100.00;101176.97;5011364;28;20039;-79
2023/09/12 01:41:30;;;;;;;27.80;24.67;;;;;;;18.22;100.00;101178.13;5012628;28;20285;-75
2023/09/12 01:43:59;;;;;;;28.98;24.55;;;;;;;18.21;100.00;101181.78;5011869;28;20046;-75
2023/09/12 01:46:26;;;;;;;26.85;23.75;;;;;;;18.17;100.00;101182.09;5012254;28;20105;-75
2023/09/12 01:48:55;;;;;;;26.98;22.55;;;;;;;18.13;100.00;101179.88;5010813;28;20080;-78
2023/09/12 01:51:22;;;;;;;27.48;22.95;;;;;;;18.10;100.00;101182.88;5010647;28;20088;-77
2023/09/12 01:53:49;;;;;;;24.13;20.23;;;;;;;18.07;100.00;101188.50;5011148;28;20033;-75
2023/09/12 01:56:18;;;;;;;25.05;20.75;;;;;;;18.03;100.00;101195.97;5029343;28;20022;-75
2023/09/12 01:58:44;;;;;;;22.13;19.58;;;;;;;18.02;100.00;101191.63;5029545;28;20022;-75
2023/09/12 02:01:11;;;;;;;22.00;19.58;;;;;;;17.96;100.00;101188.72;5028197;28;20025;-76
2023/09/12 02:03:36;;;;;;;22.73;19.10;;;;;;;17.98;100.00;101187.56;5029330;28;20104;-76
2023/09/12 02:06:02;;;;;;;21.88;19.45;;;;;;;17.93;100.00;101183.69;5029817;28;20151;-76
2023/09/12 02:08:27;;;;;;;19.98;17.95;;;;;;;17.95;100.00;101179.88;5029828;28;20021;-80
2023/09/12 02:10:52;;;;;;;18.65;16.85;;;;;;;17.91;100.00;101181.19;5028990;28;20017;-80
2023/09/12 02:13:18;;;;;;;17.73;15.45;;;;;;;17.87;100.00;101174.50;5030499;28;20032;-76
2023/09/12 02:15:43;;;;;;;17.13;15.40;;;;;;;17.86;100.00;101180.81;5029765;28;20099;-78
2023/09/12 02:18:08;;;;;;;17.75;13.80;;;;;;;17.82;100.00;101176.78;5029881;28;20068;-75
2023/09/12 02:20:38;;;;;;;15.70;14.10;;;;;;;17.80;100.00;101184.09;5045890;28;20029;-75
2023/09/12 02:23:04;;;;;;;15.07;13.75;;;;;;;17.74;100.00;101174.88;5030487;28;20111;-74
2023/09/12 02:25:29;;;;;;;13.38;12.13;;;;;;;17.74;100.00;101184.69;5028532;28;20116;-74
2023/09/12 02:27:54;;;;;;;13.82;12.52;;;;;;;17.70;100.00;101188.66;5029813;28;20037;-75
2023/09/12 02:30:20;;;;;;;13.20;12.10;;;;;;;17.71;100.00;101177.03;5010105;28;20120;-75
2023/09/12 02:32:45;;;;;;;13.43;12.07;;;;;;;17.72;100.00;101178.69;5009549;28;20028;-75
2023/09/12 02:35:10;;;;;;;14.68;13.25;;;;;;;17.63;100.00;101182.22;5011475;28;20062;-75
2023/09/12 02:37:36;;;;;;;14.55;13.02;;;;;;;17.63;100.00;101182.22;5009802;28;20030;-75
2023/09/12 02:40:04;;;;;;;15.52;14.10;;;;;;;17.60;100.00;101177.19;5009868;28;20027;-79
2023/09/12 02:42:29;;;;;;;14.10;12.80;;;;;;;17.61;100.00;101176.19;5025543;28;20485;-75
2023/09/12 02:44:54;;;;;;;14.40;13.10;;;;;;;17.57;100.00;101172.16;5010943;28;20026;-79
2023/09/12 02:47:20;;;;;;;17.20;13.35;;;;;;;17.57;100.00;101178.31;5008133;28;20033;-79
2023/09/12 02:49:45;;;;;;;15.57;13.30;;;;;;;17.53;100.00;101176.94;5010196;28;20022;-77
2023/09/12 02:52:12;;;;;;;16.20;12.82;;;;;;;17.53;100.00;101176.94;5008078;28;20102;-79
2023/09/12 02:54:38;;;;;;;15.13;13.52;;;;;;;17.49;100.00;101176.41;5016715;28;20060;-79
2023/09/12 02:57:03;;;;;;;21.20;14.45;;;;;;;17.48;100.00;101168.59;5028891;28;20048;-75
2023/09/12 02:59:29;;;;;;;16.33;14.55;;;;;;;17.45;100.00;101169.72;5029138;28;20033;-79
2023/09/12 03:01:55;;;;;;;16.55;15.05;;;;;;;17.47;100.00;101178.41;5027346;28;20055;-75
2023/09/12 03:04:20;;;;;;;16.13;14.52;;;;;;;17.43;100.00;101181.50;5029099;28;20041;-75
2023/09/12 03:06:45;;;;;;;23.60;15.85;;;;;;;17.40;100.00;101176.50;5028443;28;20021;-75
2023/09/12 03:09:11;;;;;;;20.27;16.50;;;;;;;17.32;100.00;101179.91;5029582;28;20029;-79
2023/09/12 03:11:37;;;;;;;16.88;15.25;;;;;;;17.35;100.00;101176.94;5029701;28;20041;-75
2023/09/12 03:14:02;;;;;;;19.30;16.55;;;;;;;17.36;100.00;101180.44;5028660;28;20035;-75
2023/09/12 03:16:27;;;;;;;24.65;19.50;;;;;;;17.38;100.00;101187.28;5029451;28;20064;-76
2023/09/12 03:18:53;;;;;;;27.30;20.25;;;;;;;17.38;100.00;101184.63;5028191;28;20481;-75
2023/09/12 03:21:18;;;;;;;23.58;19.98;;;;;;;17.35;100.00;101168.97;5030007;28;20470;-80
2023/09/12 03:23:43;;;;;;;23.98;19.35;;;;;;;17.36;100.00;101165.31;5030110;28;20116;-76
2023/09/12 03:26:09;;;;;;;19.92;17.90;;;;;;;17.35;100.00;101163.63;5030674;28;20049;-80
2023/09/12 03:28:34;;;;;;;20.95;18.73;;;;;;;17.36;100.00;101160.00;5024027;28;20034;-80
2023/09/12 03:31:08;;;;;;;20.80;18.40;;;;;;;17.34;100.00;101169.13;5010142;28;20038;-80
2023/09/12 03:33:35;;;;;;;26.88;18.83;;;;;;;17.28;100.00;101162.56;5026422;28;20021;-76
2023/09/12 03:36:00;;;;;;;22.58;18.95;;;;;;;17.28;100.00;101167.88;5009556;28;20029;-76
2023/09/12 03:38:25;;;;;;;19.88;17.98;;;;;;;17.26;100.00;101159.22;5011086;28;20034;-76
2023/09/12 03:40:51;;;;;;;20.77;17.85;;;;;;;17.25;100.00;101162.88;5010392;28;20385;-80
2023/09/12 03:43:16;;;;;;;22.02;18.38;;;;;;;17.22;100.00;101163.16;5009357;28;20576;-77
2023/09/12 03:45:42;;;;;;;19.58;17.63;;;;;;;17.22;100.00;101173.81;5010455;28;20469;-80
2023/09/12 03:48:11;;;;;;;19.40;17.40;;;;;;;17.18;100.00;101172.41;5013349;28;20061;-80
2023/09/12 03:50:37;;;;;;;24.25;19.83;;;;;;;17.18;100.00;101177.72;5013784;28;20033;-76
2023/09/12 03:53:02;;;;;;;22.73;20.38;;;;;;;17.16;100.00;101177.03;5012284;28;20386;-80
2023/09/12 03:55:29;;;;;;;23.20;19.23;;;;;;;17.17;100.00;101170.72;5027494;28;20080;-76
2023/09/12 03:57:54;;;;;;;21.05;18.73;;;;;;;17.16;100.00;101169.06;5030427;28;20041;-80
2023/09/12 04:00:20;;;;;;;19.48;17.38;;;;;;;17.15;100.00;101170.03;5032798;28;20437;-76
2023/09/12 04:02:45;;;;;;;18.63;16.88;;;;;;;17.17;100.00;101170.72;5033008;28;20025;-80
2023/09/12 04:05:10;;;;;;;18.65;16.75;;;;;;;17.09;100.00;101168.81;5032857;28;20135;-76
2023/09/12 04:07:36;;;;;;;19.15;16.95;;;;;;;17.16;100.00;101166.41;5032497;28;20057;-76
2023/09/12 04:10:01;;;;;;;18.60;16.80;;;;;;;17.14;100.00;101166.53;5032672;28;20009;-76
2023/09/12 04:12:26;;;;;;;18.92;17.02;;;;;;;17.15;100.00;101162.06;5031961;28;20033;-75
2023/09/12 04:14:52;;;;;;;19.15;17.15;;;;;;;17.16;100.00;101158.41;5032466;28;20022;-74
2023/09/12 04:17:18;;;;;;;19.95;18.02;;;;;;;17.16;100.00;101151.28;5031567;28;20021;-74
2023/09/12 04:19:43;;;;;;;22.80;18.10;;;;;;;17.15;100.00;101159.41;5031340;28;20060;-76
2023/09/12 04:22:08;;;;;;;20.60;18.50;;;;;;;17.19;100.00;101161.63;5047073;28;20362;-76
2023/09/12 04:24:34;;;;;;;20.90;18.55;;;;;;;17.17;100.00;101152.94;5032620;28;20095;-80
2023/09/12 04:26:59;;;;;;;19.55;17.73;;;;;;;17.19;100.00;101143.00;5047047;28;20021;-76
2023/09/12 04:29:25;;;;;;;20.60;18.33;;;;;;;17.19;100.00;101156.28;5023091;28;20032;-76
2023/09/12 04:31:52;;;;;;;22.13;18.70;;;;;;;17.20;100.00;101154.47;5011384;28;20034;-80
2023/09/12 04:34:17;;;;;;;21.63;19.00;;;;;;;17.24;100.00;101169.19;5030356;28;20026;-77
2023/09/12 04:36:43;;;;;;;23.35;21.00;;;;;;;17.24;100.00;101166.50;5011770;28;20079;-80
2023/09/12 04:39:11;;;;;;;22.60;19.70;;;;;;;17.25;100.00;101162.88;5011215;28;20028;-76
2023/09/12 04:41:37;;;;;;;23.65;21.17;;;;;;;17.27;100.00;101166.22;5013064;28;20386;-76
2023/09/12 04:44:02;;;;;;;24.17;20.92;;;;;;;17.25;100.00;101162.03;5014240;28;20042;-80
2023/09/12 04:46:28;;;;;;;25.75;21.02;;;;;;;17.27;100.00;101154.75;5012803;28;20491;-76
2023/09/12 04:48:53;;;;;;;23.48;21.15;;;;;;;17.27;100.00;101158.25;5012370;28;20032;-80
2023/09/12 04:51:18;;;;;;;23.52;21.17;;;;;;;17.29;100.00;101160.75;5013659;28;20109;-80
2023/09/12 04:53:44;;;;;;;23.35;20.65;;;;;;;17.29;100.00;101174.88;5013380;28;20030;-76
2023/09/12 04:56:10;;;;;;;24.27;21.90;;;;;;;17.28;100.00;101175.88;5030327;28;20030;-80
2023/09/12 04:58:35;;;;;;;25.70;21.88;;;;;;;17.31;100.00;101175.56;5031898;28;20474;-76
2023/09/12 05:01:00;;;;;;;29.45;21.95;;;;;;;17.28;100.00;101181.19;5031432;28;20032;-81
2023/09/12 05:03:26;;;;;;;28.70;23.55;;;;;;;17.25;100.00;101172.66;5031079;28;20048;-76
2023/09/12 05:05:52;;;;;;;28.00;23.17;;;;;;;17.21;100.00;101175.63;5031999;28;20029;-75
2023/09/12 05:08:20;;;;;;;31.75;24.95;;;;;;;17.22;100.00;101176.47;5032249;28;20048;-75
2023/09/12 05:10:45;;;;;;;26.75;23.30;;;;;;;17.26;100.00;101175.19;5032901;28;20025;-80
2023/09/12 05:13:11;;;;;;;28.25;23.35;;;;;;;17.25;100.00;101183.31;5045922;28;20074;-75
2023/09/12 05:15:39;;;;;;;27.45;24.20;;;;;;;17.25;100.00;101184.16;5046900;28;20021;-75
2023/09/12 05:18:06;;;;;;;28.90;24.77;;;;;;;17.26;100.00;101188.47;5029788;28;20041;-80
2023/09/12 05:20:32;;;;;;;30.40;24.90;;;;;;;17.26;100.00;101175.19;5030837;28;20033;-75
2023/09/12 05:22:59;;;;;;;30.25;24.50;;;;;;;17.27;100.00;101174.19;5031122;28;20032;-75
2023/09/12 05:25:25;;;;;;;29.35;24.00;;;;;;;17.29;100.00;101169.56;5031374;28;20036;-80
2023/09/12 05:27:50;;;;;;;32.03;25.98;;;;;;;17.25;100.00;101162.03;5031429;28;20021;-75
2023/09/12 05:30:15;;;;;;;33.20;27.02;;;;;;;17.20;100.00;101146.50;5013018;28;20056;-79
2023/09/12 05:32:47;;;;;;;35.10;25.95;;;;;;;17.19;100.00;101144.81;5012602;28;20113;-79
2023/09/12 05:35:12;;;;;;;28.70;25.42;;;;;;;17.21;100.00;101140.19;5011595;28;20486;-75
2023/09/12 05:37:37;;;;;;;28.58;24.17;;;;;;;17.28;100.00;101141.28;5011879;28;20053;-80
2023/09/12 05:40:04;;;;;;;28.58;24.33;;;;;;;17.28;100.00;101141.28;5027325;28;20032;-76
2023/09/12 05:42:30;;;;;;;30.15;26.08;;;;;;;17.25;100.00;101146.06;5011536;28;20061;-80
2023/09/12 05:44:56;;;;;;;31.95;25.77;;;;;;;17.30;100.00;101155.28;5011501;28;20048;-76
2023/09/12 05:47:22;;;;;;;30.40;25.45;;;;;;;17.32;100.00;101153.31;5012095;28;20053;-79
2023/09/12 05:49:47;;;;;;;30.33;25.02;;;;;;;17.35;100.00;101162.81;5011681;28;20032;-76
2023/09/12 05:52:17;;;;;;;32.10;24.88;;;;;;;17.39;100.00;101169.50;5011760;28;20445;-76
2023/09/12 05:54:42;;;;;;;30.63;25.65;;;;;;;17.39;100.00;101164.19;5018585;28;20033;-79
2023/09/12 05:57:09;;;;;;;31.05;25.60;;;;;;;17.42;100.00;101161.22;5031636;28;20086;-74
2023/09/12 05:59:36;;;;;;;29.27;25.00;;;;;;;17.40;100.00;101161.38;5029733;28;20025;-74
2023/09/12 06:02:02;;;;;;;29.17;24.02;;;;;;;17.40;100.00;101164.03;5031068;28;20401;-74
2023/09/12 06:04:27;;;;;;;30.58;25.63;;;;;;;17.41;100.00;101171.03;5029857;28;20033;-76
2023/09/12 06:06:53;;;;;;;32.15;26.52;;;;;;;17.43;100.00;101166.38;5031238;28;20112;-75
2023/09/12 06:09:18;;;;;;;35.13;25.15;;;;;;;17.48;100.00;101176.56;5031083;28;20068;-75
2023/09/12 06:11:43;;;;;;;32.35;25.90;;;;;;;17.49;100.00;101176.41;5030240;28;20030;-76
2023/09/12 06:14:09;;;;;;;32.72;25.13;;;;;;;17.47;100.00;101178.41;5028560;28;20022;-76
2023/09/12 06:16:36;;;;;;;36.33;25.77;;;;;;;17.49;100.00;101181.75;5029395;28;20035;-76
2023/09/12 06:19:01;;;;;;;30.73;26.55;;;;;;;17.51;100.00;101182.44;5029908;28;20382;-80
2023/09/12 06:21:26;;;;;;;31.88;25.55;;;;;;;17.50;100.00;101177.25;5030190;28;20071;-79
2023/09/12 06:24:10;;;;;;;34.97;27.52;;;;;;;17.55;100.00;101186.47;5029246;28;20018;-80
2023/09/12 06:26:36;;;;;;;41.13;26.55;;;;;;;17.53;100.00;101180.44;5028436;28;20397;-79
2023/09/12 06:29:02;;;;;;;35.28;26.02;;;;;;;17.57;100.00;101178.31;5020756;28;20029;-79
2023/09/12 06:31:27;;;;;;;31.95;26.55;;;;;;;17.55;100.00;101180.31;5009297;28;20045;-75
2023/09/12 06:33:53;;;;;;;34.22;25.77;;;;;;;17.57;100.00;101178.31;5009747;28;20026;-75
2023/09/12 06:36:18;;;;;;;36.03;26.88;;;;;;;17.58;100.00;101187.16;5010145;28;20034;-75
2023/09/12 06:38:43;;;;;;;35.70;26.58;;;;;;;17.62;100.00;101188.53;5010287;28;20079;-75
2023/09/12 06:41:09;;;;;;;34.25;27.13;;;;;;;17.60;100.00;101182.50;5011511;28;20032;-75
2023/09/12 06:43:35;;;;;;;32.75;28.13;;;;;;;17.64;100.00;101191.88;5011303;28;20092;-80
2023/09/12 06:46:01;;;;;;;39.63;28.60;;;;;;;17.64;100.00;101198.06;5009840;28;20439;-75
2023/09/12 06:48:27;;;;;;;35.17;28.77;;;;;;;17.65;100.00;101201.56;5009371;28;20112;-75
2023/09/12 06:50:54;;;;;;;36.85;28.15;;;;;;;17.68;100.00;101201.28;5010878;28;20109;-75
2023/09/12 06:53:21;;;;;;;35.28;27.90;;;;;;;17.66;100.00;101203.22;5009708;28;20037;-79
2023/09/12 06:55:47;;;;;;;36.35;29.73;;;;;;;17.67;100.00;101203.09;5027852;28;20055;-79
2023/09/12 06:58:12;;;;;;;35.75;29.95;;;;;;;17.71;100.00;101200.97;5030779;28;20049;-76
2023/09/12 07:00:38;;;;;;;41.90;30.25;;;;;;;17.75;100.00;101202.34;5030211;28;20025;-76
2023/09/12 07:03:03;;;;;;;32.58;27.20;;;;;;;17.82;100.00;101203.41;5030347;28;20110;-75
2023/09/12 07:05:29;;;;;;;33.97;27.98;;;;;;;17.88;100.00;101192.16;5029778;28;20379;-75
2023/09/12 07:07:55;;;;;;;33.13;28.38;;;;;;;17.97;100.00;101201.88;5029489;28;20031;-75
2023/09/12 07:10:21;;;;;;;32.88;27.92;;;;;;;18.02;100.00;101188.97;5030461;28;20079;-75
2023/09/12 07:12:46;;;;;;;31.65;28.25;;;;;;;18.11;100.00;101198.69;5027997;28;20022;-79
2023/09/12 07:15:12;;;;;;;36.20;29.05;;;;;;;18.14;100.00;101202.88;5029782;28;20029;-75
2023/09/12 07:17:38;;;;;;;34.97;28.52;;;;;;;18.18;100.00;101198.91;5029292;28;20030;-75
2023/09/12 07:20:05;;;;;;;30.70;26.60;;;;;;;18.28;100.00;101198.81;5027493;28;20030;-75
2023/09/12 07:22:30;;;;;;;38.08;28.88;;;;;;;18.32;100.00;101210.81;5033228;28;20075;-75
2023/09/12 07:24:59;;;;;;;30.85;27.10;;;;;;;18.35;100.00;101213.19;5048652;28;20022;-79
2023/09/12 07:27:25;;;;;;;29.95;26.08;;;;;;;18.35;100.00;101205.19;5031466;28;20056;-78
2023/09/12 07:29:50;;;;;;;30.58;24.98;;;;;;;18.38;100.00;101215.53;5032877;28;20053;-80
2023/09/12 07:32:18;;;;;;;31.13;26.23;;;;;;;18.38;100.00;101226.19;5013831;28;20017;-75
2023/09/12 07:34:48;;;;;;;29.75;26.13;;;;;;;18.38;100.00;101212.88;5012974;28;20060;-75
2023/09/12 07:37:17;;;;;;;33.33;26.02;;;;;;;18.46;100.00;101207.63;5013079;28;20116;-75
2023/09/12 07:39:42;;;;;;;31.95;26.65;;;;;;;18.55;100.00;101201.34;5013332;28;20436;-76
2023/09/12 07:42:07;;;;;;;29.83;26.30;;;;;;;18.62;100.00;101204.25;5012596;28;20030;-75
2023/09/12 07:44:33;;;;;;;30.30;26.60;;;;;;;18.74;100.00;101203.81;5012147;28;20025;-76
2023/09/12 07:46:58;;;;;;;35.35;26.88;;;;;;;18.90;100.00;101199.59;5013555;28;20022;-76
2023/09/12 07:49:26;;;;;;;35.50;26.98;;;;;;;19.09;100.00;101204.66;5012992;28;20083;-76
2023/09/12 07:51:52;;;;;;;34.92;26.20;;;;;;;19.23;100.00;101206.75;5013797;28;20026;-76
2023/09/12 07:54:17;;;;;;;33.75;26.20;;;;;;;19.49;100.00;101200.47;5017513;28;20105;-76
2023/09/12 07:56:43;;;;;;;32.03;25.50;;;;;;;19.65;100.00;101200.56;5048269;28;20079;-79
2023/09/12 07:59:10;;;;;;;28.15;25.05;;;;;;;19.76;100.00;101197.59;5032364;28;20029;-75
2023/09/12 08:01:35;;;;;;;29.08;26.05;;;;;;;20.00;100.00;101205.59;5033920;28;20029;-75
2023/09/12 08:04:00;;;;;;;26.55;23.77;;;;;;;20.11;100.00;101207.13;5032575;28;20815;-76
2023/09/12 08:06:26;;;;;;;25.40;22.75;;;;;;;20.27;100.00;101206.28;5033141;28;20462;-76
2023/09/12 08:08:53;;;;;;;26.15;22.90;;;;;;;20.50;100.00;101220.69;5032580;28;20064;-79
2023/09/12 08:11:19;;;;;;;26.55;22.10;;;;;;;20.48;100.00;101228.03;5031888;28;20032;-76
2023/09/12 08:13:49;;;;;;;23.42;20.73;;;;;;;20.65;100.00;101237.69;5032357;28;20025;-79
2023/09/12 08:16:17;;;;;;;24.90;22.17;;;;;;;20.62;100.00;101240.72;5031451;28;20021;-79
2023/09/12 08:18:44;;;;;;;26.17;19.30;;;;;;;20.74;100.00;101241.19;5032596;28;20037;-78
2023/09/12 08:21:10;;;;;;;23.48;18.58;;;;;;;20.73;100.00;101234.16;5047774;28;20071;-76
2023/09/12 08:23:36;;;;;;;26.05;20.52;;;;;;;20.87;100.00;101238.00;5032122;28;20029;-75
2023/09/12 08:26:01;;;;;;;23.17;19.60;;;;;;;20.99;100.00;101243.81;5032019;28;20035;-75
2023/09/12 08:28:27;;;;;;;21.45;19.20;;;;;;;21.00;100.00;101250.84;5030739;28;20040;-76
2023/09/12 08:30:52;;;;;;;19.92;17.92;;;;;;;21.00;100.00;101254.34;5029991;28;20140;-77
2023/09/12 08:33:17;;;;;;;23.08;18.20;;;;;;;20.92;100.00;101259.72;5046707;28;20032;-76
2023/09/12 08:35:49;;;;;;;20.33;18.23;;;;;;;20.85;100.00;101269.44;5033691;28;20092;-75
2023/09/12 08:38:17;;;;;;;20.00;18.00;;;;;;;20.81;100.00;101268.94;5030090;28;20036;-77
2023/09/12 08:40:52;;;;;;;21.60;18.05;;;;;;;20.75;100.00;101274.13;5032284;28;20039;-74
2023/09/12 08:43:19;;;;;;;22.42;19.33;;;;;;;20.76;100.00;101273.09;5029895;28;20501;-75
2023/09/12 08:45:47;;;;;;;21.45;19.35;;;;;;;20.75;100.00;101266.09;5031615;28;20389;-75
2023/09/12 08:48:14;;;;;;;24.38;19.08;;;;;;;20.75;100.00;101258.06;5031974;28;20030;-75
2023/09/12 08:50:41;;;;;;;20.35;18.17;;;;;;;20.85;100.00;101264.09;5031428;28;20048;-75
2023/09/12 08:53:06;;;;;;;18.83;16.90;;;;;;;20.81;100.00;101268.94;5030043;28;20025;-75
2023/09/12 08:55:37;;;;;;;18.40;16.55;;;;;;;20.81;100.00;101268.94;5031789;28;20029;-75
2023/09/12 08:58:04;;;;;;;20.30;18.30;;;;;;;20.79;100.00;101264.75;5031930;28;20078;-75
2023/09/12 09:00:30;;;;;;;18.00;16.20;;;;;;;20.93;100.00;101266.75;5030291;28;20025;-75
2023/09/12 09:02:56;;;;;;;19.10;17.02;;;;;;;21.19;100.00;101272.66;5032000;28;20034;-75
2023/09/12 09:05:23;;;;;;;18.00;16.13;;;;;;;21.31;100.00;101277.72;5030025;28;20033;-75
2023/09/12 09:07:50;;;;;;;18.55;16.02;;;;;;;21.42;100.00;101282.69;5031947;28;20033;-75
2023/09/12 09:10:17;;;;;;;14.25;12.85;;;;;;;21.50;100.00;101277.28;5032644;28;20056;-75
2023/09/12 09:12:45;;;;;;;15.18;13.00;;;;;;;21.87;100.00;101266.72;5031367;28;20060;-76
2023/09/12 09:15:27;;;;;;;16.83;15.13;;;;;;;22.26;100.00;101255.09;5031737;28;20068;-78
2023/09/12 09:17:55;;;;;;;25.65;20.73;;;;;;;22.50;100.00;101240.66;5031625;28;20612;-78
2023/09/12 09:20:30;;;;;;;27.13;22.45;;;;;;;22.56;98.87;101239.09;5031138;28;20033;-78
2023/09/12 09:23:07;;;;;;;26.70;21.52;;;;;;;22.72;100.00;101241.59;5031480;28;20025;-78
2023/09/12 09:25:33;;;;;;;25.27;22.08;;;;;;;22.73;99.93;101233.34;5031016;28;20513;-78
2023/09/12 09:27:58;;;;;;;31.05;24.20;;;;;;;22.73;100.00;101235.22;5030355;28;20025;-74
2023/09/12 09:30:47;;;;;;;30.67;24.65;;;;;;;22.90;99.19;101235.91;5031077;28;20079;-74
2023/09/12 09:33:13;;;;;;;31.02;25.55;;;;;;;22.84;97.77;101225.94;5031828;28;20108;-77
2023/09/12 09:35:51;;;;;;;30.83;25.95;;;;;;;23.13;97.39;101237.47;5032351;28;20033;-74
2023/09/12 09:38:19;;;;;;;32.67;26.58;;;;;;;23.26;97.64;101236.00;5031609;28;20022;-74
2023/09/12 09:40:45;;;;;;;31.27;25.65;;;;;;;23.56;94.33;101232.25;5030951;28;20722;-77
2023/09/12 09:43:11;;;;;;;38.75;27.67;;;;;;;23.78;91.42;101229.63;5029158;28;20124;-74
2023/09/12 09:45:44;;;;;;;33.85;27.38;;;;;;;23.98;89.87;101226.09;5036236;28;20014;-76
2023/09/12 09:48:10;;;;;;;35.63;28.13;;;;;;;24.14;90.55;101222.34;5030450;28;20052;-74
2023/09/12 09:50:38;;;;;;;34.88;29.35;;;;;;;24.42;86.91;101221.59;5030729;28;20109;-74
2023/09/12 09:53:08;;;;;;;36.97;28.23;;;;;;;24.72;87.49;101223.03;5028869;28;20065;-74
2023/09/12 09:55:34;;;;;;;33.85;28.40;;;;;;;25.07;81.80;101223.06;5014040;28;20032;-74
2023/09/12 09:57:59;;;;;;;37.70;28.90;;;;;;;25.34;83.09;101226.72;5010324;28;20026;-74
2023/09/12 10:00:25;;;;;;;34.67;27.92;;;;;;;25.58;80.36;101227.00;5011230;28;20057;-74
2023/09/12 10:02:52;;;;;;;31.95;26.63;;;;;;;26.18;79.57;101232.56;5010157;28;20445;-77
2023/09/12 10:05:18;;;;;;;33.22;27.95;;;;;;;26.08;75.43;101234.84;5010149;28;20034;-74
2023/09/12 10:07:47;;;;;;;35.38;27.55;;;;;;;25.69;75.78;101244.50;5009694;28;20430;-74
2023/09/12 10:10:13;;;;;;;31.00;25.88;;;;;;;25.61;79.22;101229.28;5012866;28;20109;-74
2023/09/12 10:12:48;;;;;;;30.77;25.30;;;;;;;25.47;82.72;101219.50;5010616;28;20461;-76
2023/09/12 10:15:17;;;;;;;30.58;25.33;;;;;;;25.30;80.50;101221.72;5026206;28;20124;-77
2023/09/12 10:17:46;;;;;;;35.92;27.48;;;;;;;25.12;83.84;101221.44;5010326;28;20018;-77
2023/09/12 10:20:19;;;;;;;31.98;26.27;;;;;;;25.16;81.66;101227.25;5010899;28;20061;-74
2023/09/12 10:23:14;;;;;;;31.65;25.27;;;;;;;24.98;84.85;101223.22;5010291;28;20029;-77
2023/09/12 10:25:43;;;;;;;32.95;26.85;;;;;;;24.69;82.73;101223.41;5006398;28;20034;-74
2023/09/12 10:28:09;;;;;;;32.67;27.48;;;;;;;24.76;81.73;101223.47;5012515;28;20109;-74
2023/09/12 10:30:36;;;;;;;35.92;26.95;;;;;;;24.61;81.70;101210.13;5030089;28;20071;-75
2023/09/12 10:33:04;;;;;;;37.75;30.38;;;;;;;24.52;82.07;101214.81;5031899;28;20458;-76
2023/09/12 10:35:32;;;;;;;34.30;29.58;;;;;;;24.44;83.59;101208.75;5031593;28;20033;-76
2023/09/12 10:38:04;;;;;;;36.90;29.33;;;;;;;24.50;82.74;101207.97;5029746;28;20108;-75
2023/09/12 10:40:30;;;;;;;38.40;32.17;;;;;;;24.83;84.68;101213.59;5031195;28;20033;-78
2023/09/12 10:42:57;;;;;;;42.00;32.60;;;;;;;25.15;83.92;101212.94;5045914;28;20648;-75
2023/09/12 10:45:22;;;;;;;42.03;33.90;;;;;;;25.36;80.77;101220.09;5029840;28;20033;-77
2023/09/12 10:47:48;;;;;;;43.05;33.67;;;;;;;25.53;79.33;101210.59;5030358;28;20147;-75
2023/09/12 10:50:19;;;;;;;43.17;32.67;;;;;;;25.57;81.65;101213.72;5028748;28;20076;-75
2023/09/12 10:52:45;;;;;;;40.97;32.38;;;;;;;25.59;78.05;101217.03;5029562;28;20108;-75
2023/09/12 10:55:19;;;;;;;39.22;31.30;;;;;;;25.59;78.77;101220.56;5016563;28;20026;-75
2023/09/12 10:58:14;;;;;;;39.67;31.63;;;;;;;25.78;81.27;101224.41;5009525;28;20030;-77
2023/09/12 11:01:02;;;;;;;34.67;30.45;;;;;;;25.65;80.63;101231.59;5005745;28;20038;-75